Main page
METAR-TAF:

METAR-TAF

Airports :

Riviera Airport

Albenga, Italy

latitude: 44-03N, longitude: 008-07E, elevation: 45 m

Current weather observation

The report was made 12 hours and 18 minutes ago, at 17:50 UTC
Calm wind
Temperature 15°C
Humidity 72%
Pressure 1019 hPa
Visibility 10 km or more
no clouds below 1500 m and no cumulonimbus

METAR: LIMG 231750Z 00000KT CAVOK 15/10 Q1019

Time: 08:08 (06:08 UTC)


TAF: missing

Weather observations and forecasts of more than 4000 airports (METAR and TAF reports).

The available stations are represented by yellow and red dots on the map.

Hover mouse over dot to see the name of the station.

Then click to see weather observations and forecasts.

To change the map : click on the green buttons with a black cross to zoom in, on the green button with a dash to zoom out, or on the green arrows for adjacent maps.


METAR-TAF: